Time;durP1;ratioP1;P1;durP2;ratioP2;P2;SDS_P1;SDS_P2;PMS_P1;PMS_P2;Temp;Humidity;BMP_temperature;BMP_pressure;BME280_temperature;BME280_humidity;BME280_pressure;Samples;Min_cycle;Max_cycle;Signal;HPM_P1;HPM_P2
2022/12/09 00:01:17;;;;;;;27.42;10.30;;;2.80;99.90;;;;;;5010611;28;20161;-75
2022/12/09 00:03:43;;;;;;;25.27;10.13;;;2.70;99.90;;;;;;5010266;28;20036;-75
2022/12/09 00:06:15;;;;;;;29.90;11.13;;;2.80;99.90;;;;;;5010556;28;20049;-73
2022/12/09 00:08:41;;;;;;;25.88;10.27;;;2.80;99.90;;;;;;4996096;28;20037;-75
2022/12/09 00:11:07;;;;;;;28.25;10.82;;;2.70;99.90;;;;;;5027369;28;20061;-75
2022/12/09 00:13:33;;;;;;;23.90;10.52;;;2.70;99.90;;;;;;5010469;28;20053;-77
2022/12/09 00:16:03;;;;;;;27.27;11.15;;;2.70;99.90;;;;;;5023620;28;20041;-74
2022/12/09 00:18:29;;;;;;;27.75;10.70;;;2.70;99.90;;;;;;5020196;28;20041;-75
2022/12/09 00:20:54;;;;;;;26.27;10.65;;;2.70;99.90;;;;;;5011304;28;20476;-75
2022/12/09 00:23:20;;;;;;;31.30;10.90;;;2.70;99.90;;;;;;5029799;28;20119;-75
2022/12/09 00:25:45;;;;;;;34.20;10.77;;;2.70;99.90;;;;;;5029733;28;20054;-75
2022/12/09 00:28:11;;;;;;;24.98;10.00;;;2.70;99.90;;;;;;5009785;28;20053;-74
2022/12/09 00:30:37;;;;;;;31.35;10.40;;;2.70;99.90;;;;;;5009694;28;20030;-74
2022/12/09 00:33:02;;;;;;;25.40;11.13;;;2.70;99.90;;;;;;4996549;28;20041;-74
2022/12/09 00:35:28;;;;;;;25.67;10.82;;;2.70;99.90;;;;;;4992058;28;20113;-75
2022/12/09 00:37:53;;;;;;;28.40;12.15;;;2.70;99.90;;;;;;4992494;28;20026;-75
2022/12/09 00:40:19;;;;;;;28.88;11.88;;;2.70;99.90;;;;;;5009706;28;20041;-74
2022/12/09 00:42:44;;;;;;;31.88;12.13;;;2.60;99.90;;;;;;4981399;28;20022;-74
2022/12/09 00:45:10;;;;;;;26.73;10.68;;;2.60;99.90;;;;;;4991618;28;20033;-74
2022/12/09 00:47:36;;;;;;;27.00;10.43;;;2.70;99.90;;;;;;5028819;28;20039;-75
2022/12/09 00:50:02;;;;;;;25.13;9.82;;;2.70;99.90;;;;;;5011182;28;20045;-75
2022/12/09 00:52:27;;;;;;;31.30;12.73;;;2.60;99.90;;;;;;5009519;28;20389;-75
2022/12/09 00:54:53;;;;;;;24.05;10.00;;;2.60;99.90;;;;;;4993133;28;20022;-75
2022/12/09 00:57:18;;;;;;;27.13;9.80;;;2.60;99.90;;;;;;5011282;28;20491;-75
2022/12/09 00:59:44;;;;;;;18.05;7.65;;;2.60;99.90;;;;;;5029389;28;20033;-75
2022/12/09 01:02:10;;;;;;;23.55;8.85;;;2.70;99.90;;;;;;4988754;28;20494;-75
2022/12/09 01:04:35;;;;;;;21.98;8.68;;;2.70;99.90;;;;;;4972230;28;20030;-76
2022/12/09 01:07:01;;;;;;;19.88;7.05;;;2.70;99.90;;;;;;5010763;28;20034;-75
2022/12/09 01:09:26;;;;;;;21.05;8.00;;;2.70;99.90;;;;;;5025046;28;20035;-74
2022/12/09 01:11:52;;;;;;;22.60;8.45;;;2.70;99.90;;;;;;5023664;28;20053;-75
2022/12/09 01:14:17;;;;;;;27.38;10.25;;;2.60;99.90;;;;;;5021079;28;20592;-75
2022/12/09 01:16:43;;;;;;;31.55;9.95;;;2.60;99.90;;;;;;4995396;28;20124;-74
2022/12/09 01:19:12;;;;;;;27.00;9.05;;;2.60;99.90;;;;;;5013130;28;20030;-75
2022/12/09 01:21:37;;;;;;;19.10;7.70;;;2.60;99.90;;;;;;5020055;28;20026;-75
2022/12/09 01:24:09;;;;;;;21.48;8.57;;;2.60;99.90;;;;;;5029145;28;20444;-75
2022/12/09 01:26:35;;;;;;;24.35;8.02;;;2.60;99.90;;;;;;5017015;28;20375;-74
2022/12/09 01:29:00;;;;;;;21.38;8.05;;;2.60;99.90;;;;;;5009352;28;20037;-75
2022/12/09 01:31:26;;;;;;;19.48;7.88;;;2.60;99.90;;;;;;5008823;28;20390;-75
2022/12/09 01:33:54;;;;;;;23.85;8.90;;;2.60;99.90;;;;;;5008221;28;20029;-74
2022/12/09 01:36:24;;;;;;;29.23;9.18;;;2.60;99.90;;;;;;5008735;28;20038;-75
2022/12/09 01:38:50;;;;;;;23.73;8.35;;;2.60;99.90;;;;;;5022125;28;20037;-75
2022/12/09 01:41:17;;;;;;;21.42;8.55;;;2.60;99.90;;;;;;5028640;28;20393;-75
2022/12/09 01:43:43;;;;;;;17.58;6.78;;;2.60;99.90;;;;;;5023674;28;20034;-75
2022/12/09 01:46:08;;;;;;;18.77;7.60;;;2.60;99.90;;;;;;5008727;28;20026;-76
2022/12/09 01:48:39;;;;;;;20.63;7.72;;;2.60;99.90;;;;;;4991547;28;20401;-74
2022/12/09 01:51:11;;;;;;;21.48;8.70;;;2.60;99.90;;;;;;4990815;28;20048;-75
2022/12/09 01:53:40;;;;;;;20.92;8.25;;;2.60;99.90;;;;;;5012125;28;20029;-75
2022/12/09 01:56:11;;;;;;;23.00;8.85;;;2.60;99.90;;;;;;5011409;28;20052;-75
2022/12/09 01:58:36;;;;;;;22.90;8.82;;;2.60;99.90;;;;;;5016657;28;20029;-75
2022/12/09 02:01:02;;;;;;;21.83;8.13;;;2.60;99.90;;;;;;5028619;28;20408;-74
2022/12/09 02:03:28;;;;;;;21.35;8.23;;;2.60;99.90;;;;;;5027802;28;20617;-75
2022/12/09 02:05:54;;;;;;;17.45;7.38;;;2.70;99.90;;;;;;5028108;28;20096;-74
2022/12/09 02:08:19;;;;;;;22.08;8.13;;;2.60;99.90;;;;;;5018327;28;20125;-74
2022/12/09 02:11:02;;;;;;;26.10;10.10;;;2.60;99.90;;;;;;5007940;28;20026;-75
2022/12/09 02:13:36;;;;;;;20.40;7.60;;;2.70;99.90;;;;;;4989984;28;20549;-75
2022/12/09 02:16:08;;;;;;;20.02;9.27;;;2.70;99.90;;;;;;5008385;28;20034;-75
2022/12/09 02:19:15;;;;;;;23.10;8.70;;;2.70;99.90;;;;;;5014525;28;20026;-75
2022/12/09 02:21:53;;;;;;;23.23;9.10;;;2.70;99.90;;;;;;5009477;28;20044;-75
2022/12/09 02:24:42;;;;;;;21.92;7.88;;;2.70;99.90;;;;;;5027683;28;20118;-75
2022/12/09 02:27:19;;;;;;;21.88;9.57;;;2.70;99.90;;;;;;5011450;28;20068;-76
2022/12/09 02:30:02;;;;;;;21.40;8.32;;;2.70;99.90;;;;;;4997755;28;20095;-76
2022/12/09 02:32:36;;;;;;;19.27;8.32;;;2.70;99.90;;;;;;5024927;28;20025;-74
2022/12/09 02:35:12;;;;;;;21.85;8.75;;;2.70;99.90;;;;;;5015413;28;20037;-74
2022/12/09 02:37:47;;;;;;;19.70;8.55;;;2.70;99.90;;;;;;5027232;28;20052;-75
2022/12/09 02:40:23;;;;;;;17.30;7.00;;;2.70;99.90;;;;;;5027708;28;20033;-75
2022/12/09 02:42:49;;;;;;;21.73;8.73;;;2.70;99.90;;;;;;5026376;28;20036;-75
2022/12/09 02:45:17;;;;;;;22.98;8.73;;;2.70;99.90;;;;;;5022805;28;20112;-75
2022/12/09 02:47:48;;;;;;;25.05;9.10;;;2.70;99.90;;;;;;5018597;28;20018;-75
2022/12/09 02:50:16;;;;;;;23.90;9.60;;;2.70;99.90;;;;;;5007994;28;20096;-76
2022/12/09 02:52:43;;;;;;;20.05;8.57;;;2.70;99.90;;;;;;5012384;28;20097;-75
2022/12/09 02:55:11;;;;;;;20.40;8.00;;;2.70;99.90;;;;;;5027264;28;20465;-77
2022/12/09 02:57:39;;;;;;;20.98;7.50;;;2.70;99.90;;;;;;5027312;28;20071;-76
2022/12/09 03:00:05;;;;;;;16.77;6.80;;;2.70;99.90;;;;;;4988744;28;20042;-75
2022/12/09 03:02:35;;;;;;;17.58;7.30;;;2.70;99.90;;;;;;4988330;28;20029;-76
2022/12/09 03:05:20;;;;;;;20.50;6.93;;;2.70;99.90;;;;;;4988310;28;20050;-76
2022/12/09 03:08:12;;;;;;;18.60;7.60;;;2.70;99.90;;;;;;4987734;28;20593;-76
2022/12/09 03:11:05;;;;;;;22.17;8.23;;;2.60;99.90;;;;;;4971975;28;20038;-76
2022/12/09 03:13:58;;;;;;;21.40;7.28;;;2.60;99.90;;;;;;4994133;28;20080;-75
2022/12/09 03:16:24;;;;;;;20.52;6.65;;;2.60;99.90;;;;;;4987936;28;20042;-75
2022/12/09 03:19:02;;;;;;;25.95;9.20;;;2.60;99.90;;;;;;5023804;28;20059;-76
2022/12/09 03:21:31;;;;;;;17.08;6.43;;;2.50;99.90;;;;;;5027248;28;20482;-75
2022/12/09 03:23:57;;;;;;;16.60;7.15;;;2.40;99.90;;;;;;5026823;28;20030;-74
2022/12/09 03:26:27;;;;;;;18.30;7.40;;;2.30;99.90;;;;;;5021203;28;20509;-74
2022/12/09 03:28:54;;;;;;;15.27;6.82;;;2.20;99.90;;;;;;4995599;28;20040;-74
2022/12/09 03:31:23;;;;;;;15.75;6.40;;;2.20;99.90;;;;;;5030696;28;20033;-75
2022/12/09 03:33:52;;;;;;;18.92;7.10;;;2.10;99.90;;;;;;5026625;28;20044;-74
2022/12/09 03:36:21;;;;;;;22.70;8.18;;;2.10;99.90;;;;;;5030984;28;20140;-75
2022/12/09 03:38:48;;;;;;;17.95;6.32;;;2.00;99.90;;;;;;5012070;28;20453;-75
2022/12/09 03:41:22;;;;;;;19.58;7.38;;;2.00;99.90;;;;;;5028403;28;20041;-74
2022/12/09 03:43:54;;;;;;;18.10;6.93;;;2.00;99.90;;;;;;4994856;28;20095;-75
2022/12/09 03:46:21;;;;;;;17.95;7.07;;;2.00;99.90;;;;;;5010928;28;20124;-75
2022/12/09 03:48:47;;;;;;;21.38;7.80;;;2.00;99.90;;;;;;5030441;28;20029;-75
2022/12/09 03:51:29;;;;;;;20.20;7.50;;;2.10;99.90;;;;;;5029013;28;20491;-76
2022/12/09 03:54:15;;;;;;;20.10;7.45;;;2.10;99.90;;;;;;5030249;28;22713;-74
2022/12/09 03:56:44;;;;;;;20.70;8.27;;;2.20;99.90;;;;;;5016985;28;20087;-75
2022/12/09 03:59:14;;;;;;;23.55;7.43;;;2.20;99.90;;;;;;5029045;28;20038;-75
2022/12/09 04:01:42;;;;;;;18.33;7.07;;;2.10;99.90;;;;;;5030195;28;20030;-74
2022/12/09 04:04:08;;;;;;;19.92;7.57;;;2.20;99.90;;;;;;5030169;28;20083;-75
2022/12/09 04:06:35;;;;;;;16.63;6.95;;;2.20;99.90;;;;;;5030863;28;20025;-75
2022/12/09 04:09:00;;;;;;;19.83;7.40;;;2.20;99.90;;;;;;5030342;28;20028;-75
2022/12/09 04:11:26;;;;;;;18.52;7.60;;;2.20;99.90;;;;;;5030264;28;21391;-75
2022/12/09 04:13:51;;;;;;;20.67;7.55;;;2.20;99.90;;;;;;5012217;28;20072;-74
2022/12/09 04:16:17;;;;;;;16.00;6.75;;;2.20;99.90;;;;;;5030049;28;20041;-75
2022/12/09 04:18:43;;;;;;;19.40;7.90;;;2.30;99.90;;;;;;5030023;28;20489;-75
2022/12/09 04:21:10;;;;;;;18.00;7.18;;;2.30;99.90;;;;;;5030129;28;20026;-75
2022/12/09 04:23:36;;;;;;;17.20;6.72;;;2.30;99.90;;;;;;4999076;28;20431;-76
2022/12/09 04:26:03;;;;;;;21.65;8.13;;;2.30;99.90;;;;;;5003211;28;20034;-74
2022/12/09 04:28:29;;;;;;;21.40;6.97;;;2.30;99.90;;;;;;4990695;28;20097;-75
2022/12/09 04:30:54;;;;;;;19.15;7.40;;;2.30;99.90;;;;;;4989586;28;20483;-75
2022/12/09 04:33:20;;;;;;;18.13;7.30;;;2.30;99.90;;;;;;4990324;28;20087;-75
2022/12/09 04:35:45;;;;;;;17.52;7.18;;;2.30;99.90;;;;;;5007695;28;20042;-75
2022/12/09 04:38:11;;;;;;;20.40;7.93;;;2.20;99.90;;;;;;5007449;28;20030;-75
2022/12/09 04:40:37;;;;;;;23.05;5.93;;;2.20;99.90;;;;;;5009819;28;20486;-76
2022/12/09 04:43:03;;;;;;;15.32;6.50;;;2.30;99.90;;;;;;5010130;28;20040;-74
2022/12/09 04:45:29;;;;;;;14.48;6.47;;;2.20;99.90;;;;;;4991996;28;20029;-74
2022/12/09 04:47:54;;;;;;;14.07;6.70;;;2.20;99.90;;;;;;5009921;28;20445;-74
2022/12/09 04:50:20;;;;;;;15.52;7.07;;;2.20;99.90;;;;;;5009383;28;20052;-75
2022/12/09 04:52:45;;;;;;;19.42;6.22;;;2.20;99.90;;;;;;5009437;28;20080;-75
2022/12/09 04:55:13;;;;;;;14.05;6.25;;;2.20;99.90;;;;;;5026636;28;20044;-74
2022/12/09 04:57:38;;;;;;;14.88;5.80;;;2.30;99.90;;;;;;5027976;28;20017;-75
2022/12/09 05:00:05;;;;;;;17.45;6.93;;;2.20;99.90;;;;;;5028411;28;20030;-74
2022/12/09 05:02:31;;;;;;;19.10;7.32;;;2.30;99.90;;;;;;5029029;28;20026;-74
2022/12/09 05:05:00;;;;;;;22.13;7.63;;;2.20;99.90;;;;;;5027671;28;20075;-75
2022/12/09 05:07:26;;;;;;;17.40;7.57;;;2.20;99.90;;;;;;5028972;28;20045;-75
2022/12/09 05:09:51;;;;;;;16.45;6.35;;;2.20;99.90;;;;;;5029066;28;20021;-75
2022/12/09 05:12:17;;;;;;;15.20;6.03;;;2.20;99.90;;;;;;5028973;28;20111;-75
2022/12/09 05:14:42;;;;;;;16.20;6.75;;;2.20;99.90;;;;;;5028983;28;20033;-73
2022/12/09 05:17:08;;;;;;;14.52;6.38;;;2.10;99.90;;;;;;5022485;28;20551;-75
2022/12/09 05:19:33;;;;;;;14.38;7.03;;;2.00;99.90;;;;;;5009585;28;20434;-75
2022/12/09 05:21:59;;;;;;;19.85;6.90;;;2.00;99.90;;;;;;5009456;28;20041;-74
2022/12/09 05:24:25;;;;;;;13.82;6.80;;;1.90;99.90;;;;;;4998700;28;20065;-75
2022/12/09 05:26:50;;;;;;;14.48;6.05;;;1.80;99.90;;;;;;4997847;28;20038;-75
2022/12/09 05:29:16;;;;;;;17.02;7.47;;;1.80;99.90;;;;;;4997872;28;20041;-75
2022/12/09 05:31:41;;;;;;;15.88;6.53;;;1.70;99.90;;;;;;5010670;28;20096;-75
2022/12/09 05:34:07;;;;;;;15.13;6.20;;;1.60;99.90;;;;;;5027165;28;20046;-75
2022/12/09 05:36:32;;;;;;;13.45;6.15;;;1.60;99.90;;;;;;5009233;28;20029;-75
2022/12/09 05:38:58;;;;;;;12.77;5.35;;;1.50;99.90;;;;;;5008933;28;20077;-76
2022/12/09 05:41:24;;;;;;;14.73;6.63;;;1.50;99.90;;;;;;5012302;28;20060;-75
2022/12/09 05:43:50;;;;;;;16.75;6.65;;;1.40;99.90;;;;;;5026931;28;20026;-76
2022/12/09 05:46:16;;;;;;;20.33;6.85;;;1.40;99.90;;;;;;5022778;28;20045;-75
2022/12/09 05:48:42;;;;;;;20.48;6.70;;;1.40;99.90;;;;;;5037071;22;20183;-70
2022/12/09 05:51:14;;;;;;;14.60;6.40;;;1.30;99.90;;;;;;5037416;28;20073;-72
2022/12/09 05:53:39;;;;;;;15.38;6.40;;;1.30;99.90;;;;;;5037505;28;20037;-70
2022/12/09 05:56:05;;;;;;;13.73;6.25;;;1.30;99.90;;;;;;5036634;28;20404;-70
2022/12/09 05:58:31;;;;;;;16.17;6.93;;;1.20;99.90;;;;;;5039369;28;20118;-70
2022/12/09 06:01:06;;;;;;;16.95;7.50;;;1.20;99.90;;;;;;5036372;28;20118;-71
2022/12/09 06:03:32;;;;;;;19.13;6.32;;;1.10;99.90;;;;;;5034320;28;20033;-70
2022/12/09 06:05:58;;;;;;;14.30;6.38;;;1.10;99.90;;;;;;5037830;28;20037;-70
2022/12/09 06:08:24;;;;;;;14.57;6.15;;;1.10;99.90;;;;;;5039919;28;20044;-70
2022/12/09 06:10:49;;;;;;;14.60;6.93;;;1.10;99.90;;;;;;5036440;28;20029;-70
2022/12/09 06:13:15;;;;;;;19.60;6.68;;;1.10;99.90;;;;;;5038759;28;20037;-70
2022/12/09 06:15:41;;;;;;;17.55;6.03;;;1.10;99.90;;;;;;5035865;28;20029;-71
2022/12/09 06:18:06;;;;;;;17.30;6.80;;;1.00;99.90;;;;;;5037918;28;20030;-70
2022/12/09 06:20:32;;;;;;;19.90;7.80;;;1.00;99.90;;;;;;5037117;28;20106;-71
2022/12/09 06:22:57;;;;;;;18.88;7.20;;;1.00;99.90;;;;;;5034868;28;20471;-70
2022/12/09 06:25:23;;;;;;;19.75;7.15;;;1.00;99.90;;;;;;5038864;28;20088;-72
2022/12/09 06:27:50;;;;;;;14.18;6.03;;;1.00;99.90;;;;;;5040562;28;20041;-71
2022/12/09 06:30:16;;;;;;;17.10;6.85;;;0.90;99.90;;;;;;5034881;28;20052;-72
2022/12/09 06:32:41;;;;;;;17.63;6.03;;;0.90;99.90;;;;;;5031771;28;20102;-69
2022/12/09 06:35:07;;;;;;;18.05;7.07;;;0.80;99.90;;;;;;5038073;28;20057;-71
2022/12/09 06:37:33;;;;;;;14.90;6.63;;;0.80;99.90;;;;;;5039710;28;20040;-71
2022/12/09 06:39:58;;;;;;;15.07;6.50;;;0.90;99.90;;;;;;5034685;28;20088;-71
2022/12/09 06:42:24;;;;;;;14.30;6.43;;;0.80;99.90;;;;;;5031200;28;20047;-70
2022/12/09 06:44:49;;;;;;;14.73;6.35;;;0.80;99.90;;;;;;5039829;28;20057;-71
2022/12/09 06:47:15;;;;;;;16.90;6.53;;;0.80;99.90;;;;;;5044346;28;20056;-71
2022/12/09 06:49:40;;;;;;;20.85;6.85;;;0.80;99.90;;;;;;5040849;28;20039;-71
2022/12/09 06:52:06;;;;;;;17.67;6.85;;;0.80;99.90;;;;;;5036496;28;20036;-71
2022/12/09 06:54:31;;;;;;;17.88;6.75;;;0.80;99.90;;;;;;5035844;28;20032;-71
2022/12/09 06:56:57;;;;;;;17.10;6.72;;;0.80;99.90;;;;;;5039477;28;20041;-71
2022/12/09 06:59:23;;;;;;;16.40;6.82;;;0.80;99.90;;;;;;5032352;28;20041;-72
2022/12/09 07:01:49;;;;;;;14.68;5.78;;;0.80;99.90;;;;;;5042467;28;20061;-70
2022/12/09 07:04:15;;;;;;;12.95;6.10;;;0.70;99.90;;;;;;5048807;28;20068;-71
2022/12/09 07:06:43;;;;;;;16.08;6.85;;;0.70;99.90;;;;;;5040420;28;20489;-71
2022/12/09 07:09:11;;;;;;;14.27;6.38;;;0.70;99.90;;;;;;5036246;28;20515;-71
2022/12/09 07:11:37;;;;;;;16.95;6.80;;;0.70;99.90;;;;;;5038092;28;20029;-70
2022/12/09 07:14:03;;;;;;;18.58;7.95;;;0.70;99.90;;;;;;5045828;28;20102;-71
2022/12/09 07:16:29;;;;;;;15.20;6.03;;;0.60;99.90;;;;;;5037677;28;20855;-70
2022/12/09 07:18:55;;;;;;;19.85;7.90;;;0.60;99.90;;;;;;5047270;28;20040;-71
2022/12/09 07:21:22;;;;;;;18.58;6.93;;;0.60;99.90;;;;;;5034002;28;20049;-71
2022/12/09 07:23:48;;;;;;;21.05;8.75;;;0.60;99.90;;;;;;5034955;28;20120;-70
2022/12/09 07:26:15;;;;;;;21.48;8.10;;;0.60;99.90;;;;;;5044290;28;20033;-71
2022/12/09 07:28:41;;;;;;;18.15;7.60;;;0.60;99.90;;;;;;5038049;28;20496;-72
2022/12/09 07:31:25;;;;;;;25.70;7.90;;;0.70;99.90;;;;;;5042491;28;20131;-71
2022/12/09 07:33:52;;;;;;;26.25;9.60;;;0.70;99.90;;;;;;5042463;28;20033;-70
2022/12/09 07:36:19;;;;;;;24.98;10.13;;;0.70;99.90;;;;;;5046745;28;20048;-71
2022/12/09 07:38:45;;;;;;;22.52;9.60;;;0.70;99.90;;;;;;5038174;28;20038;-71
2022/12/09 07:41:16;;;;;;;29.30;11.52;;;0.70;99.90;;;;;;5035607;28;20530;-70
2022/12/09 07:43:44;;;;;;;30.27;10.30;;;0.80;99.90;;;;;;5042752;28;20187;-70
2022/12/09 07:46:10;;;;;;;34.20;13.15;;;0.90;99.90;;;;;;5041774;28;20132;-71
2022/12/09 07:48:35;;;;;;;34.42;13.75;;;1.00;99.90;;;;;;5030621;28;20103;-73
2022/12/09 07:51:03;;;;;;;37.05;13.65;;;1.10;99.90;;;;;;5038053;28;20081;-70
2022/12/09 07:53:29;;;;;;;30.83;13.10;;;1.20;99.90;;;;;;5030812;28;20033;-70
2022/12/09 07:55:54;;;;;;;43.90;15.98;;;1.20;99.90;;;;;;5035981;28;20408;-70
2022/12/09 07:58:20;;;;;;;41.55;14.23;;;1.30;99.90;;;;;;5045234;28;20026;-71
2022/12/09 08:00:46;;;;;;;38.45;14.98;;;1.40;99.90;;;;;;5044542;28;20071;-71
2022/12/09 08:03:12;;;;;;;38.58;13.35;;;1.40;99.90;;;;;;5038501;28;20482;-70
2022/12/09 08:05:46;;;;;;;34.83;14.18;;;1.50;99.90;;;;;;5044538;28;20035;-70
2022/12/09 08:08:11;;;;;;;41.80;15.98;;;1.50;99.90;;;;;;5041023;28;20045;-72
2022/12/09 08:10:37;;;;;;;41.42;15.68;;;1.50;99.90;;;;;;5037285;28;20392;-72
2022/12/09 08:13:02;;;;;;;39.92;14.50;;;1.60;99.90;;;;;;5035803;28;20100;-70
2022/12/09 08:15:28;;;;;;;39.75;15.02;;;1.60;99.90;;;;;;5038896;28;20091;-70
2022/12/09 08:17:53;;;;;;;37.00;13.45;;;1.60;99.90;;;;;;5034844;28;20112;-71
2022/12/09 08:20:19;;;;;;;37.97;13.52;;;1.60;99.90;;;;;;5045667;28;20053;-71
2022/12/09 08:22:44;;;;;;;39.72;14.45;;;1.70;99.90;;;;;;5033472;28;20170;-71
2022/12/09 08:25:10;;;;;;;42.38;15.55;;;1.70;99.90;;;;;;5037644;28;20042;-71
2022/12/09 08:27:36;;;;;;;39.28;14.35;;;1.70;99.90;;;;;;5032440;28;20554;-73
2022/12/09 08:30:03;;;;;;;32.55;12.90;;;1.70;99.90;;;;;;5034176;28;20295;-71
2022/12/09 08:32:29;;;;;;;33.80;13.32;;;1.80;99.90;;;;;;5036467;28;20041;-71
2022/12/09 08:34:55;;;;;;;39.13;14.93;;;1.80;99.90;;;;;;5036866;28;20029;-71
2022/12/09 08:37:20;;;;;;;36.85;15.05;;;1.80;99.90;;;;;;5035124;28;20048;-70
2022/12/09 08:39:46;;;;;;;35.75;13.18;;;1.80;99.90;;;;;;5048028;28;20119;-70
2022/12/09 08:42:12;;;;;;;35.10;12.70;;;1.90;99.90;;;;;;5032463;28;20629;-71
2022/12/09 08:44:38;;;;;;;32.33;12.80;;;1.90;99.90;;;;;;5034483;28;20041;-71
2022/12/09 08:47:04;;;;;;;32.83;12.65;;;1.90;99.90;;;;;;5043509;28;20037;-72
2022/12/09 08:49:30;;;;;;;37.97;13.93;;;1.90;99.90;;;;;;5038111;28;20094;-71
2022/12/09 08:51:55;;;;;;;36.45;12.45;;;1.90;99.90;;;;;;5048186;28;20681;-71
2022/12/09 08:54:21;;;;;;;33.63;13.00;;;1.90;99.90;;;;;;5039992;28;20076;-71
2022/12/09 08:56:50;;;;;;;40.13;13.50;;;1.90;99.90;;;;;;5038759;28;20512;-71
2022/12/09 08:59:16;;;;;;;32.80;13.63;;;1.90;99.90;;;;;;5040684;28;20044;-71
2022/12/09 09:01:42;;;;;;;32.13;13.35;;;1.90;99.90;;;;;;5035596;28;20055;-70
2022/12/09 09:04:10;;;;;;;35.97;13.35;;;2.00;99.90;;;;;;5039681;28;20055;-72
2022/12/09 09:06:38;;;;;;;34.03;12.73;;;2.00;99.90;;;;;;5043062;28;20048;-73
2022/12/09 09:09:05;;;;;;;32.78;14.07;;;2.10;99.90;;;;;;5033980;28;20040;-70
2022/12/09 09:11:31;;;;;;;28.38;11.63;;;2.10;99.90;;;;;;5031146;28;20043;-70
2022/12/09 09:13:57;;;;;;;30.20;11.18;;;2.10;99.90;;;;;;5032822;28;20033;-70
2022/12/09 09:16:25;;;;;;;28.15;11.52;;;2.10;99.90;;;;;;5026908;28;20045;-69
2022/12/09 09:18:51;;;;;;;37.50;12.88;;;2.10;99.90;;;;;;5035335;28;20116;-70
2022/12/09 09:21:19;;;;;;;33.63;12.43;;;2.10;99.90;;;;;;5027030;28;20037;-70
2022/12/09 09:23:44;;;;;;;30.58;12.27;;;2.20;99.90;;;;;;5034589;28;20083;-71
2022/12/09 09:26:16;;;;;;;31.23;12.45;;;2.20;99.90;;;;;;5036236;28;20436;-71
2022/12/09 09:28:42;;;;;;;33.47;12.45;;;2.20;99.90;;;;;;5044953;28;20037;-70
2022/12/09 09:31:10;;;;;;;31.85;13.45;;;2.20;99.90;;;;;;5037901;28;20043;-70
2022/12/09 09:33:36;;;;;;;30.38;13.05;;;2.20;99.90;;;;;;5034463;28;20041;-72
2022/12/09 09:36:04;;;;;;;33.22;13.23;;;2.30;99.90;;;;;;5033198;28;20037;-70
2022/12/09 09:38:31;;;;;;;28.02;12.80;;;2.30;99.90;;;;;;5033628;28;20108;-70
2022/12/09 09:40:59;;;;;;;34.88;12.98;;;2.40;99.90;;;;;;5033984;28;20068;-70
2022/12/09 09:43:29;;;;;;;32.42;12.85;;;2.40;99.90;;;;;;5043860;28;20033;-70
2022/12/09 09:45:56;;;;;;;;;;;2.50;99.90;;;;;;5030338;28;20049;-71
2022/12/09 09:48:28;;;;;;;30.08;11.98;;;2.50;99.90;;;;;;5027822;28;19917;-70
2022/12/09 09:51:14;;;;;;;34.47;12.90;;;2.50;99.90;;;;;;5037788;28;20118;-71
2022/12/09 09:53:41;;;;;;;34.67;12.82;;;2.60;99.90;;;;;;5034925;28;20103;-71
2022/12/09 09:56:39;;;;;;;30.40;12.63;;;2.60;99.90;;;;;;5031722;28;20499;-71
2022/12/09 09:59:30;;;;;;;32.42;13.27;;;2.70;99.90;;;;;;5036099;28;20104;-69
2022/12/09 10:02:10;;;;;;;33.45;12.80;;;2.70;99.90;;;;;;5038702;28;20033;-69
2022/12/09 10:05:09;;;;;;;29.88;12.18;;;2.80;99.90;;;;;;5033129;28;20391;-70
2022/12/09 10:07:51;;;;;;;28.90;12.90;;;2.70;99.90;;;;;;5040852;28;20846;-71
2022/12/09 10:10:25;;;;;;;36.10;13.98;;;2.70;99.90;;;;;;5036480;28;20029;-70
2022/12/09 10:13:04;;;;;;;38.65;14.30;;;2.70;99.90;;;;;;5038093;28;20092;-71
2022/12/09 10:15:35;;;;;;;35.78;13.80;;;2.70;99.90;;;;;;5040263;28;20029;-70
2022/12/09 10:18:15;;;;;;;31.20;12.70;;;2.70;99.90;;;;;;5041556;28;20504;-70
2022/12/09 10:20:41;;;;;;;;;;;2.80;99.90;;;;;;5035884;28;20041;-72
2022/12/09 10:23:12;;;;;;;33.17;12.60;;;2.80;99.90;;;;;;5031106;28;20344;-71
2022/12/09 10:26:00;;;;;;;34.90;13.27;;;2.80;99.90;;;;;;5032937;28;20114;-71
2022/12/09 10:28:32;;;;;;;32.70;13.93;;;2.90;99.90;;;;;;5031435;28;20033;-71
2022/12/09 10:30:57;;;;;;;39.10;12.95;;;3.00;99.90;;;;;;5034839;28;20148;-69
2022/12/09 10:33:29;;;;;;;31.00;13.25;;;3.10;99.90;;;;;;5033619;28;20809;-71
2022/12/09 10:35:55;;;;;;;29.25;12.25;;;3.00;99.90;;;;;;5032835;28;20098;-70
2022/12/09 10:38:21;;;;;;;34.58;13.02;;;3.00;99.90;;;;;;5039961;28;20121;-70
2022/12/09 10:40:48;;;;;;;30.50;13.05;;;2.90;99.90;;;;;;5036525;28;20037;-70
2022/12/09 10:43:39;;;;;;;36.45;12.18;;;2.90;99.90;;;;;;5040664;28;20896;-71
2022/12/09 10:46:17;;;;;;;33.40;12.52;;;2.90;99.90;;;;;;5045260;28;20037;-70
2022/12/09 10:48:46;;;;;;;30.73;12.77;;;2.90;99.90;;;;;;5033017;28;20047;-71
2022/12/09 10:51:19;;;;;;;30.60;11.40;;;2.90;99.90;;;;;;5038642;28;20049;-70
2022/12/09 10:53:58;;;;;;;29.90;11.75;;;2.80;99.90;;;;;;5031574;28;20036;-70
2022/12/09 10:56:25;;;;;;;28.70;11.27;;;2.80;99.90;;;;;;5036296;28;20473;-70
2022/12/09 10:59:28;;;;;;;29.02;12.63;;;2.90;99.90;;;;;;5033414;28;20029;-70
2022/12/09 11:02:07;;;;;;;30.67;11.63;;;2.90;99.90;;;;;;5038405;28;20029;-70
2022/12/09 11:04:40;;;;;;;31.05;12.80;;;2.90;99.90;;;;;;5036228;28;20041;-71
2022/12/09 11:07:06;;;;;;;32.67;13.85;;;2.90;99.90;;;;;;5031061;28;20067;-70
2022/12/09 11:09:36;;;;;;;29.95;13.27;;;2.90;99.90;;;;;;5033887;28;20037;-70
2022/12/09 11:12:05;;;;;;;31.27;12.57;;;2.90;99.90;;;;;;5034119;28;20061;-69
2022/12/09 11:14:36;;;;;;;26.40;10.85;;;2.90;99.90;;;;;;5040737;28;20033;-70
2022/12/09 11:17:26;;;;;;;26.83;10.70;;;3.00;99.90;;;;;;5036808;28;20045;-70
2022/12/09 11:20:05;;;;;;;27.75;10.85;;;3.00;99.90;;;;;;5031257;28;20032;-70
2022/12/09 11:22:37;;;;;;;22.25;10.23;;;3.00;99.90;;;;;;5042941;28;20037;-70
2022/12/09 11:25:12;;;;;;;22.45;9.35;;;3.00;99.90;;;;;;5039076;28;20112;-70
2022/12/09 11:27:49;;;;;;;23.40;10.05;;;3.00;99.90;;;;;;5031901;28;20129;-71
2022/12/09 11:30:40;;;;;;;30.77;12.48;;;3.00;99.90;;;;;;5025076;28;20033;-71
2022/12/09 11:33:06;;;;;;;22.73;10.20;;;3.00;99.90;;;;;;5025841;28;20033;-70
2022/12/09 11:35:36;;;;;;;27.83;12.05;;;3.10;99.90;;;;;;5036722;28;20059;-69
2022/12/09 11:38:16;;;;;;;25.60;11.02;;;3.00;99.90;;;;;;5035604;28;20136;-69
2022/12/09 11:40:42;;;;;;;25.27;11.27;;;3.00;99.90;;;;;;5037217;28;20532;-70
2022/12/09 11:43:09;;;;;;;29.40;11.95;;;3.00;99.90;;;;;;5043733;28;20128;-70
2022/12/09 11:45:37;;;;;;;25.65;11.13;;;3.00;99.90;;;;;;5048493;28;20036;-69
2022/12/09 11:48:14;;;;;;;30.38;11.85;;;3.00;99.90;;;;;;5034674;28;20036;-70
2022/12/09 11:50:45;;;;;;;31.95;12.40;;;3.00;99.90;;;;;;5027394;22;20084;-71
2022/12/09 11:53:11;;;;;;;27.30;11.82;;;3.00;99.90;;;;;;5001268;28;20858;-72
2022/12/09 11:55:43;;;;;;;34.88;13.40;;;3.10;99.90;;;;;;5019837;28;20034;-73
2022/12/09 11:58:21;;;;;;;31.48;12.85;;;3.10;99.90;;;;;;5016245;28;20490;-71
2022/12/09 12:01:11;;;;;;;29.40;12.10;;;3.00;99.90;;;;;;5002135;28;20084;-71
2022/12/09 12:03:45;;;;;;;31.27;12.63;;;3.00;99.90;;;;;;5014918;28;20140;-72
2022/12/09 12:06:28;;;;;;;29.23;11.45;;;3.00;99.90;;;;;;5019327;28;20064;-71
2022/12/09 12:09:11;;;;;;;33.90;13.73;;;3.00;99.90;;;;;;5014981;28;20030;-71
2022/12/09 12:11:46;;;;;;;35.97;13.13;;;3.00;99.90;;;;;;5000498;28;20072;-71
2022/12/09 12:14:16;;;;;;;33.13;13.77;;;3.00;99.90;;;;;;5019535;28;20113;-72
2022/12/09 12:17:09;;;;;;;26.67;12.27;;;3.00;99.90;;;;;;5021764;28;20116;-70
2022/12/09 12:19:39;;;;;;;27.17;11.82;;;3.10;99.90;;;;;;5015641;28;20034;-71
2022/12/09 12:22:19;;;;;;;30.30;11.98;;;3.10;99.90;;;;;;5015134;28;20041;-71
2022/12/09 12:25:05;;;;;;;27.25;10.70;;;3.10;99.90;;;;;;5016917;28;20383;-73
2022/12/09 12:27:49;;;;;;;28.95;11.10;;;3.00;99.90;;;;;;5010994;28;20042;-72
2022/12/09 12:30:18;;;;;;;25.10;10.60;;;3.00;99.90;;;;;;5016541;28;20177;-71
2022/12/09 12:33:26;;;;;;;27.83;10.02;;;3.00;99.90;;;;;;5018865;28;20041;-71
2022/12/09 12:36:19;;;;;;;25.13;10.40;;;3.10;99.90;;;;;;5006974;28;20041;-71
2022/12/09 12:39:12;;;;;;;23.90;10.80;;;3.10;99.90;;;;;;5017050;28;20116;-72
2022/12/09 12:41:51;;;;;;;23.88;10.23;;;3.10;99.90;;;;;;5019906;28;20033;-72
2022/12/09 12:47:43;;;;;;;31.45;11.60;;;3.20;99.90;;;;;;5016429;28;20052;-72
2022/12/09 12:50:11;;;;;;;24.67;9.30;;;3.10;99.90;;;;;;4998477;28;20049;-72
2022/12/09 12:53:01;;;;;;;29.38;10.45;;;3.10;99.90;;;;;;5017464;28;20034;-72
2022/12/09 12:56:06;;;;;;;25.02;10.73;;;3.10;99.90;;;;;;5019745;28;20030;-71
2022/12/09 12:59:02;;;;;;;25.20;11.57;;;3.10;99.90;;;;;;5012750;28;20026;-72
2022/12/09 13:01:32;;;;;;;27.77;9.52;;;3.00;99.90;;;;;;5002380;28;20034;-72